createdAt,value
2023-10-10T00:01:45.811Z,102271.16
2023-10-10T00:04:13.536Z,102271.16
2023-10-10T00:06:42.094Z,102276.41
2023-10-10T00:09:13.267Z,102272.44
2023-10-10T00:11:42.016Z,102274.53
2023-10-10T00:14:18.916Z,102269.38
2023-10-10T00:16:49.122Z,102261.41
2023-10-10T00:19:22.081Z,102261.59
2023-10-10T00:21:51.696Z,102267.22
2023-10-10T00:24:22.255Z,102261.94
2023-10-10T00:26:49.851Z,102265.94
2023-10-10T00:29:19.955Z,102261.50
2023-10-10T00:31:56.548Z,102258.31
2023-10-10T00:34:26.652Z,102259.97
2023-10-10T00:36:53.832Z,102258.06
2023-10-10T00:39:20.892Z,102262.22
2023-10-10T00:41:50.902Z,102258.72
2023-10-10T00:44:18.967Z,102264.44
2023-10-10T00:46:49.213Z,102249.84
2023-10-10T00:49:18.444Z,102251.09
2023-10-10T00:51:48.934Z,102243.94
2023-10-10T00:54:23.051Z,102247.56
2023-10-10T00:56:55.505Z,102247.19
2023-10-10T00:59:36.170Z,102242.13
2023-10-10T01:02:07.224Z,102243.28
2023-10-10T01:04:39.177Z,102249.00
2023-10-10T01:07:09.461Z,102241.31
2023-10-10T01:09:57.029Z,102242.56
2023-10-10T01:12:30.265Z,102241.31
2023-10-10T01:14:58.666Z,102237.13
2023-10-10T01:17:32.356Z,102227.72
2023-10-10T01:20:16.353Z,102223.56
2023-10-10T01:22:48.075Z,102220.09
2023-10-10T01:25:33.020Z,102223.28
2023-10-10T01:28:07.078Z,102221.66
2023-10-10T01:31:00.597Z,102225.44
2023-10-10T01:33:38.142Z,102232.50
2023-10-10T01:36:31.325Z,102221.53
2023-10-10T01:39:01.097Z,102227.06
2023-10-10T01:41:41.447Z,102221.47
2023-10-10T01:44:14.026Z,102215.41
2023-10-10T01:46:42.320Z,102218.53
2023-10-10T01:49:30.779Z,102223.72
2023-10-10T01:52:00.863Z,102220.25
2023-10-10T01:54:47.465Z,102217.22
2023-10-10T01:57:23.660Z,102211.03
2023-10-10T01:59:53.229Z,102210.59
2023-10-10T02:02:24.869Z,102201.81
2023-10-10T02:04:57.179Z,102209.16
2023-10-10T02:07:32.445Z,102211.72
2023-10-10T02:10:15.533Z,102203.78
2023-10-10T02:12:46.795Z,102206.69
2023-10-10T02:15:17.029Z,102207.22
2023-10-10T02:17:53.059Z,102187.56
2023-10-10T02:20:26.395Z,102195.97
2023-10-10T02:23:14.321Z,102199.16
2023-10-10T02:25:42.526Z,102197.63
2023-10-10T02:28:18.315Z,102198.44
2023-10-10T02:30:48.940Z,102188.31
2023-10-10T02:33:16.029Z,102192.38
2023-10-10T02:35:57.258Z,102171.47
2023-10-10T02:38:41.425Z,102170.63
2023-10-10T02:41:22.954Z,102160.50
2023-10-10T02:43:58.249Z,102164.09
2023-10-10T02:46:37.166Z,102156.94
2023-10-10T02:49:14.548Z,102159.41
2023-10-10T02:51:44.432Z,102160.78
2023-10-10T02:54:41.938Z,102163.41
2023-10-10T02:57:27.275Z,102155.88
2023-10-10T03:00:17.013Z,102142.03
2023-10-10T03:02:51.724Z,102157.31
2023-10-10T03:05:40.484Z,102153.78
2023-10-10T03:08:14.020Z,102154.25
2023-10-10T03:10:48.137Z,102157.88
2023-10-10T03:13:29.963Z,102159.41
2023-10-10T03:16:20.761Z,102163.50
2023-10-10T03:19:14.297Z,102160.78
2023-10-10T03:21:44.393Z,102149.78
2023-10-10T03:24:23.953Z,102145.81
2023-10-10T03:26:51.237Z,102153.06
2023-10-10T03:29:28.338Z,102144.56
2023-10-10T03:32:28.149Z,102144.19
2023-10-10T03:34:58.788Z,102147.34
2023-10-10T03:37:28.774Z,102142.47
2023-10-10T03:39:58.824Z,102146.91
2023-10-10T03:42:44.983Z,102134.88
2023-10-10T03:45:30.948Z,102133.69
2023-10-10T03:48:16.785Z,102129.34
2023-10-10T03:51:03.921Z,102122.09
2023-10-10T03:53:50.267Z,102118.91
2023-10-10T03:56:37.090Z,102118.66
2023-10-10T03:59:24.114Z,102118.56
2023-10-10T04:02:11.587Z,102105.22
2023-10-10T04:05:03.445Z,102105.22
2023-10-10T04:07:54.604Z,102098.72
2023-10-10T04:10:39.914Z,102094.28
2023-10-10T04:13:26.006Z,102099.91
2023-10-10T04:16:11.997Z,102079.34
2023-10-10T04:18:57.988Z,102078.81
2023-10-10T04:21:43.640Z,102087.31
2023-10-10T04:24:29.201Z,102084.78
2023-10-10T04:27:14.708Z,102075.09
2023-10-10T04:30:00.460Z,102073.38
2023-10-10T04:32:46.405Z,102061.34
2023-10-10T04:35:32.310Z,102054.91
2023-10-10T04:38:18.107Z,102055.28
2023-10-10T04:41:03.898Z,102047.19
2023-10-10T04:43:51.340Z,102050.38
2023-10-10T04:46:38.657Z,102050.66
2023-10-10T04:49:24.574Z,102049.84
2023-10-10T04:52:10.447Z,102046.59
2023-10-10T04:54:55.735Z,102041.22
2023-10-10T04:57:41.359Z,102047.56
2023-10-10T05:00:27.513Z,102056.69
2023-10-10T05:03:13.003Z,102046.47
2023-10-10T05:05:58.785Z,102048.50
2023-10-10T05:08:44.651Z,102050.00
2023-10-10T05:11:30.334Z,102036.44
2023-10-10T05:14:16.410Z,102036.63
2023-10-10T05:17:01.803Z,102044.22
2023-10-10T05:19:47.475Z,102038.59
2023-10-10T05:22:32.747Z,102023.31
2023-10-10T05:25:00.499Z,102012.03
2023-10-10T05:27:31.258Z,102012.47
2023-10-10T05:29:58.439Z,102005.94
2023-10-10T05:32:28.448Z,102012.03
2023-10-10T05:34:57.003Z,101996.47
2023-10-10T05:37:29.447Z,102005.31
2023-10-10T05:39:59.418Z,102005.22
2023-10-10T05:42:35.307Z,101998.44
2023-10-10T05:45:08.782Z,101991.19
2023-10-10T05:47:37.229Z,101992.56
2023-10-10T05:50:04.546Z,101999.88
2023-10-10T05:52:32.218Z,102007.41
2023-10-10T05:54:59.297Z,101998.88
2023-10-10T05:57:26.389Z,102012.63
2023-10-10T05:59:53.457Z,102012.09
2023-10-10T06:02:23.054Z,102004.38
2023-10-10T06:04:52.359Z,101997.06
2023-10-10T06:07:19.259Z,101992.56
2023-10-10T06:09:46.303Z,102001.69
2023-10-10T06:12:15.284Z,102000.50
2023-10-10T06:14:43.853Z,101996.91
2023-10-10T06:17:10.929Z,102000.84
2023-10-10T06:19:40.312Z,101994.53
2023-10-10T06:22:10.370Z,102001.41
2023-10-10T06:24:38.253Z,102002.31
2023-10-10T06:27:05.272Z,102015.53
2023-10-10T06:29:35.812Z,102004.31
2023-10-10T06:32:12.100Z,101997.50
2023-10-10T06:34:39.869Z,102006.84
2023-10-10T06:37:09.550Z,101999.72
2023-10-10T06:39:55.574Z,101995.00
2023-10-10T06:42:28.830Z,101990.66
2023-10-10T06:44:56.028Z,101983.97
2023-10-10T06:47:23.025Z,101974.72
2023-10-10T06:49:57.959Z,101984.03
2023-10-10T06:52:29.127Z,101980.13
2023-10-10T06:54:57.015Z,101967.03
2023-10-10T06:57:38.704Z,101965.47
2023-10-10T07:00:30.312Z,101952.72
2023-10-10T07:02:58.773Z,101952.44
2023-10-10T07:05:32.342Z,101938.41
2023-10-10T07:08:13.920Z,101947.25
2023-10-10T07:10:44.699Z,101940.94
2023-10-10T07:13:15.155Z,101939.81
2023-10-10T07:15:43.614Z,101925.78
2023-10-10T07:18:15.722Z,101926.28
2023-10-10T07:21:04.884Z,101921.19
2023-10-10T07:23:39.386Z,101920.09
2023-10-10T07:26:21.906Z,101923.78
2023-10-10T07:28:49.644Z,101920.41
2023-10-10T07:31:22.540Z,101920.47
2023-10-10T07:34:17.006Z,101927.44
2023-10-10T07:36:45.230Z,101920.31
2023-10-10T07:39:31.179Z,101916.06
2023-10-10T07:41:58.682Z,101916.44
2023-10-10T07:44:27.271Z,101921.88
2023-10-10T07:47:21.440Z,101905.16
2023-10-10T07:49:52.482Z,101902.50
2023-10-10T07:52:21.686Z,101897.84
2023-10-10T07:54:55.847Z,101894.34
2023-10-10T07:57:29.900Z,101907.28
2023-10-10T08:00:00.011Z,101910.59
2023-10-10T08:02:33.474Z,101915.75
2023-10-10T08:05:11.121Z,101900.66
2023-10-10T08:07:38.714Z,101899.13
2023-10-10T08:10:15.727Z,101898.06
2023-10-10T08:12:44.078Z,101905.94
2023-10-10T08:15:21.133Z,101899.16
2023-10-10T08:17:55.562Z,101893.13
2023-10-10T08:20:36.987Z,101889.91
2023-10-10T08:23:06.735Z,101886.31
2023-10-10T08:25:34.614Z,101892.38
2023-10-10T08:28:02.061Z,101894.47
2023-10-10T08:30:29.060Z,101907.47
2023-10-10T08:32:57.875Z,101895.50
2023-10-10T08:35:27.379Z,101886.34
2023-10-10T08:37:54.817Z,101880.97
2023-10-10T08:40:21.744Z,101886.88
2023-10-10T08:42:52.182Z,101883.81
2023-10-10T08:45:26.567Z,101883.56
2023-10-10T08:48:02.155Z,101889.31
2023-10-10T08:50:29.774Z,101885.38
2023-10-10T08:52:56.879Z,101881.28
2023-10-10T08:55:27.665Z,101882.50
2023-10-10T08:57:56.941Z,101881.69
2023-10-10T09:00:28.406Z,101888.19
2023-10-10T09:02:56.727Z,101883.78
2023-10-10T09:05:25.948Z,101879.84
2023-10-10T09:07:57.080Z,101875.88
2023-10-10T09:10:29.693Z,101879.66
2023-10-10T09:12:57.895Z,101870.00
2023-10-10T09:15:26.438Z,101867.31
2023-10-10T09:17:57.239Z,101872.22
2023-10-10T09:20:30.196Z,101870.72
2023-10-10T09:23:13.577Z,101860.34
2023-10-10T09:25:44.133Z,101859.19
2023-10-10T09:28:17.348Z,101858.00
2023-10-10T09:30:51.762Z,101866.16
2023-10-10T09:33:29.886Z,101857.84
2023-10-10T09:36:11.049Z,101854.66
2023-10-10T09:38:45.359Z,101851.94
2023-10-10T09:41:34.753Z,101850.06
2023-10-10T09:44:40.825Z,101844.91
2023-10-10T09:47:09.370Z,101843.34
2023-10-10T09:49:55.500Z,101828.84
2023-10-10T09:52:42.811Z,101846.25
2023-10-10T09:55:14.346Z,101847.91
2023-10-10T09:58:17.583Z,101852.72
2023-10-10T10:00:44.749Z,101845.41
2023-10-10T10:03:29.224Z,101847.69
2023-10-10T10:06:28.900Z,101836.91
2023-10-10T10:09:34.230Z,101825.56
2023-10-10T10:12:32.723Z,101819.91
2023-10-10T10:15:16.991Z,101814.66
2023-10-10T10:18:13.151Z,101824.16
2023-10-10T10:20:59.664Z,101821.56
2023-10-10T10:23:29.952Z,101812.16
2023-10-10T10:26:17.333Z,101813.38
2023-10-10T10:28:44.359Z,101812.53
2023-10-10T10:31:29.817Z,101821.78
2023-10-10T10:34:09.231Z,101825.03
2023-10-10T10:36:46.518Z,101827.69
2023-10-10T10:39:22.114Z,101821.81
2023-10-10T10:41:55.400Z,101817.50
2023-10-10T10:44:46.443Z,101814.75
2023-10-10T10:47:36.731Z,101812.69
2023-10-10T10:50:07.111Z,101806.16
2023-10-10T10:52:45.529Z,101804.78
2023-10-10T10:55:26.912Z,101797.91
2023-10-10T10:58:21.794Z,101799.97
2023-10-10T11:00:59.739Z,101801.00
2023-10-10T11:03:37.237Z,101795.66
2023-10-10T11:06:09.592Z,101793.06
2023-10-10T11:09:00.815Z,101788.31
2023-10-10T11:11:31.600Z,101780.41
2023-10-10T11:14:20.640Z,101780.25
2023-10-10T11:16:48.196Z,101781.88
2023-10-10T11:19:21.088Z,101787.94
2023-10-10T11:21:51.021Z,101774.31
2023-10-10T11:24:27.498Z,101781.25
2023-10-10T11:27:12.671Z,101779.34
2023-10-10T11:29:47.175Z,101783.53
2023-10-10T11:32:30.528Z,101770.13
2023-10-10T11:35:19.218Z,101759.03
2023-10-10T11:37:50.300Z,101761.31
2023-10-10T11:40:32.493Z,101758.19
2023-10-10T11:43:07.197Z,101749.28
2023-10-10T11:45:42.940Z,101748.91
2023-10-10T11:48:14.254Z,101746.59
2023-10-10T11:50:58.272Z,101746.03
2023-10-10T11:53:26.687Z,101738.75
2023-10-10T11:55:56.023Z,101743.69
2023-10-10T11:58:37.481Z,101740.59
2023-10-10T12:01:09.454Z,101742.44
2023-10-10T12:03:39.905Z,101739.94
2023-10-10T12:06:15.990Z,101733.59
2023-10-10T12:08:46.864Z,101733.84
2023-10-10T12:11:17.286Z,101730.28
2023-10-10T12:13:45.659Z,101730.06
2023-10-10T12:16:13.047Z,101726.72
2023-10-10T12:19:00.495Z,101720.88
2023-10-10T12:21:27.722Z,101722.72
2023-10-10T12:24:02.784Z,101716.81
2023-10-10T12:26:37.870Z,101714.63
2023-10-10T12:29:05.007Z,101718.34
2023-10-10T12:31:35.488Z,101708.16
2023-10-10T12:34:02.680Z,101716.41
2023-10-10T12:36:34.332Z,101715.13
2023-10-10T12:39:01.612Z,101719.78
2023-10-10T12:41:29.511Z,101711.25
2023-10-10T12:43:56.868Z,101703.06
2023-10-10T12:46:23.975Z,101697.69
2023-10-10T12:48:54.338Z,101697.34
2023-10-10T12:51:25.683Z,101699.78
2023-10-10T12:54:02.322Z,101698.03
2023-10-10T12:56:29.981Z,101698.81
2023-10-10T12:59:23.108Z,101692.53
2023-10-10T13:01:57.134Z,101694.56
2023-10-10T13:04:30.844Z,101686.66
2023-10-10T13:07:04.880Z,101701.56
2023-10-10T13:09:33.430Z,101702.28
2023-10-10T13:12:05.157Z,101702.72
2023-10-10T13:14:34.824Z,101703.41
2023-10-10T13:17:22.154Z,101696.59
2023-10-10T13:19:50.464Z,101710.13
2023-10-10T13:22:22.594Z,101712.22
2023-10-10T13:24:50.542Z,101712.47
2023-10-10T13:27:19.489Z,101706.91
2023-10-10T13:29:46.651Z,101709.72
2023-10-10T13:32:13.818Z,101709.50
2023-10-10T13:34:40.696Z,101706.69
2023-10-10T13:37:09.240Z,101709.19
2023-10-10T13:39:49.055Z,101704.84
2023-10-10T13:42:16.288Z,101714.31
2023-10-10T13:44:44.236Z,101712.84
2023-10-10T13:47:11.824Z,101700.44
2023-10-10T13:49:45.866Z,101696.50
2023-10-10T13:52:14.701Z,101698.53
2023-10-10T13:54:41.817Z,101698.94
2023-10-10T13:57:09.245Z,101694.53
2023-10-10T13:59:36.476Z,101694.09
2023-10-10T14:02:06.009Z,101689.13
2023-10-10T14:04:47.721Z,101693.13
2023-10-10T14:07:18.453Z,101696.34
2023-10-10T14:10:02.947Z,101682.13
2023-10-10T14:12:34.147Z,101674.00
2023-10-10T14:15:02.845Z,101677.63
2023-10-10T14:17:31.150Z,101672.66
2023-10-10T14:19:59.939Z,101668.94
2023-10-10T14:22:28.169Z,101667.28
2023-10-10T14:24:59.362Z,101655.44
2023-10-10T14:27:27.860Z,101646.72
2023-10-10T14:29:57.577Z,101651.28
2023-10-10T14:32:38.626Z,101643.91
2023-10-10T14:35:06.650Z,101642.03
2023-10-10T14:37:49.925Z,101634.75
2023-10-10T14:40:20.960Z,101628.78
2023-10-10T14:42:48.241Z,101629.28
2023-10-10T14:45:15.270Z,101635.88
2023-10-10T14:47:45.326Z,101625.34
2023-10-10T14:50:14.534Z,101619.66
2023-10-10T14:52:48.776Z,101624.97
2023-10-10T14:55:25.879Z,101627.38
2023-10-10T14:57:59.433Z,101615.38
2023-10-10T15:00:29.789Z,101617.47
2023-10-10T15:02:57.570Z,101607.34
2023-10-10T15:05:25.831Z,101609.03
2023-10-10T15:07:54.037Z,101610.69
2023-10-10T15:10:28.062Z,101608.69
2023-10-10T15:12:55.767Z,101595.41
2023-10-10T15:15:24.444Z,101598.34
2023-10-10T15:17:52.616Z,101594.75
2023-10-10T15:20:20.157Z,101598.03
2023-10-10T15:22:47.391Z,101596.84
2023-10-10T15:25:16.675Z,101583.91
2023-10-10T15:27:43.908Z,101590.81
2023-10-10T15:30:11.501Z,101590.03
2023-10-10T15:32:47.871Z,101586.00
2023-10-10T15:35:18.499Z,101587.63
2023-10-10T15:37:46.008Z,101583.63
2023-10-10T15:40:14.735Z,101582.09
2023-10-10T15:42:41.893Z,101579.75
2023-10-10T15:45:09.818Z,101569.25
2023-10-10T15:47:37.149Z,101571.72
2023-10-10T15:50:04.475Z,101581.00
2023-10-10T15:52:35.321Z,101564.88
2023-10-10T15:55:06.956Z,101566.88
2023-10-10T15:57:37.231Z,101562.84
2023-10-10T16:00:11.790Z,101561.66
2023-10-10T16:02:41.339Z,101557.63
2023-10-10T16:05:08.577Z,101557.25
2023-10-10T16:07:35.561Z,101564.13
2023-10-10T16:10:04.252Z,101550.00
2023-10-10T16:12:31.617Z,101559.72
2023-10-10T16:15:01.495Z,101554.84
2023-10-10T16:17:29.953Z,101560.13
2023-10-10T16:19:57.032Z,101558.94
2023-10-10T16:22:24.064Z,101559.38
2023-10-10T16:24:53.894Z,101562.59
2023-10-10T16:27:23.055Z,101554.16
2023-10-10T16:29:50.081Z,101554.19
2023-10-10T16:32:19.756Z,101550.53
2023-10-10T16:34:47.877Z,101559.44
2023-10-10T16:37:17.664Z,101557.03
2023-10-10T16:39:46.498Z,101554.97
2023-10-10T16:42:15.364Z,101549.34
2023-10-10T16:44:43.141Z,101549.72
2023-10-10T16:47:10.921Z,101547.31
2023-10-10T16:49:38.675Z,101543.25
2023-10-10T16:52:07.400Z,101546.09
2023-10-10T16:54:37.179Z,101544.88
2023-10-10T16:57:05.765Z,101531.97
2023-10-10T16:59:33.076Z,101544.47
2023-10-10T17:02:00.771Z,101531.97
2023-10-10T17:04:28.325Z,101525.94
2023-10-10T17:06:55.635Z,101525.50
2023-10-10T17:09:24.378Z,101531.94
2023-10-10T17:11:54.337Z,101531.53
2023-10-10T17:14:21.584Z,101531.91
2023-10-10T17:16:48.516Z,101534.31
2023-10-10T17:19:18.345Z,101525.44
2023-10-10T17:21:48.969Z,101533.47
2023-10-10T17:24:17.041Z,101539.53
2023-10-10T17:26:45.338Z,101530.22
2023-10-10T17:29:13.232Z,101530.63
2023-10-10T17:31:43.603Z,101528.22
2023-10-10T17:34:16.744Z,101523.41
2023-10-10T17:36:44.805Z,101527.81
2023-10-10T17:39:17.480Z,101523.81
2023-10-10T17:41:49.461Z,101521.00
2023-10-10T17:44:19.444Z,101516.56
2023-10-10T17:46:48.205Z,101515.75
2023-10-10T17:49:16.374Z,101512.13
2023-10-10T17:51:46.129Z,101508.44
2023-10-10T17:54:13.649Z,101505.66
2023-10-10T17:56:41.114Z,101504.03
2023-10-10T17:59:08.460Z,101493.50
2023-10-10T18:01:35.651Z,101499.94
2023-10-10T18:04:04.647Z,101501.94
2023-10-10T18:06:36.299Z,101489.88
2023-10-10T18:09:09.608Z,101489.88
2023-10-10T18:11:38.201Z,101481.78
2023-10-10T18:14:08.578Z,101487.38
2023-10-10T18:16:36.529Z,101492.19
2023-10-10T18:19:04.552Z,101491.00
2023-10-10T18:21:33.420Z,101483.34
2023-10-10T18:24:07.372Z,101489.72
2023-10-10T18:26:39.065Z,101495.38
2023-10-10T18:29:06.994Z,101487.72
2023-10-10T18:31:39.227Z,101493.78
2023-10-10T18:34:06.694Z,101483.31
2023-10-10T18:36:40.630Z,101478.88
2023-10-10T18:39:14.382Z,101472.81
2023-10-10T18:41:46.042Z,101469.97
2023-10-10T18:44:17.379Z,101474.00
2023-10-10T18:46:44.974Z,101471.59
2023-10-10T18:49:12.350Z,101466.34
2023-10-10T18:51:39.287Z,101468.72
2023-10-10T18:54:10.068Z,101463.91
2023-10-10T18:56:39.149Z,101467.09
2023-10-10T18:59:06.694Z,101472.31
2023-10-10T19:01:35.881Z,101483.06
2023-10-10T19:04:03.131Z,101479.78
2023-10-10T19:06:30.108Z,101473.28
2023-10-10T19:09:01.574Z,101475.19
2023-10-10T19:11:28.819Z,101470.38
2023-10-10T19:13:56.985Z,101463.91
2023-10-10T19:16:24.365Z,101467.94
2023-10-10T19:18:51.606Z,101469.88
2023-10-10T19:21:19.391Z,101465.44
2023-10-10T19:23:51.518Z,101462.22
2023-10-10T19:26:19.068Z,101464.63
2023-10-10T19:28:54.522Z,101459.81
2023-10-10T19:31:23.538Z,101467.81
2023-10-10T19:33:51.919Z,101466.94
2023-10-10T19:36:21.381Z,101464.13
2023-10-10T19:38:49.221Z,101458.59
2023-10-10T19:41:19.291Z,101458.34
2023-10-10T19:43:46.922Z,101460.06
2023-10-10T19:46:14.169Z,101446.06
2023-10-10T19:48:42.520Z,101437.28
2023-10-10T19:51:19.888Z,101443.34
2023-10-10T19:53:51.812Z,101436.53
2023-10-10T19:56:19.591Z,101437.72
2023-10-10T19:58:47.338Z,101438.94
2023-10-10T20:01:15.410Z,101445.81
2023-10-10T20:03:45.659Z,101441.44
2023-10-10T20:06:22.275Z,101454.31
2023-10-10T20:08:56.766Z,101441.84
2023-10-10T20:11:25.372Z,101445.47
2023-10-10T20:13:53.121Z,101451.91
2023-10-10T20:16:22.919Z,101444.69
2023-10-10T20:18:55.862Z,101446.31
2023-10-10T20:21:25.633Z,101443.09
2023-10-10T20:23:52.779Z,101436.25
2023-10-10T20:26:20.821Z,101446.34
2023-10-10T20:28:51.672Z,101461.25
2023-10-10T20:31:19.570Z,101444.75
2023-10-10T20:33:51.195Z,101450.00
2023-10-10T20:36:18.671Z,101447.56
2023-10-10T20:38:46.199Z,101441.91
2023-10-10T20:41:15.583Z,101451.13
2023-10-10T20:43:43.873Z,101462.03
2023-10-10T20:46:13.330Z,101457.97
2023-10-10T20:48:40.441Z,101460.34
2023-10-10T20:51:15.009Z,101458.34
2023-10-10T20:53:43.648Z,101458.75
2023-10-10T20:56:10.855Z,101461.97
2023-10-10T20:58:39.742Z,101465.59
2023-10-10T21:01:10.878Z,101468.84
2023-10-10T21:03:39.384Z,101462.34
2023-10-10T21:06:06.657Z,101464.38
2023-10-10T21:08:34.178Z,101461.56
2023-10-10T21:11:08.391Z,101463.59
2023-10-10T21:13:36.091Z,101465.97
2023-10-10T21:16:03.078Z,101476.84
2023-10-10T21:18:30.204Z,101474.81
2023-10-10T21:21:04.048Z,101478.88
2023-10-10T21:23:32.364Z,101471.22
2023-10-10T21:25:59.446Z,101475.22
2023-10-10T21:28:27.162Z,101474.84
2023-10-10T21:30:54.296Z,101480.88
2023-10-10T21:33:21.606Z,101472.00
2023-10-10T21:35:51.066Z,101473.25
2023-10-10T21:38:18.803Z,101470.41
2023-10-10T21:40:45.800Z,101488.09
2023-10-10T21:43:12.851Z,101471.97
2023-10-10T21:45:40.484Z,101493.72
2023-10-10T21:48:11.216Z,101482.44
2023-10-10T21:50:42.538Z,101483.25
2023-10-10T21:53:09.922Z,101483.25
2023-10-10T21:55:41.978Z,101476.81
2023-10-10T21:58:15.088Z,101486.06
2023-10-10T22:00:42.330Z,101478.84
2023-10-10T22:03:09.843Z,101470.38
2023-10-10T22:05:38.530Z,101476.00
2023-10-10T22:08:07.975Z,101475.59
2023-10-10T22:10:36.887Z,101478.41
2023-10-10T22:13:05.498Z,101473.16
2023-10-10T22:15:36.542Z,101466.72
2023-10-10T22:18:07.813Z,101467.50
2023-10-10T22:20:35.568Z,101469.53
2023-10-10T22:23:02.958Z,101471.59
2023-10-10T22:25:33.431Z,101472.00
2023-10-10T22:28:01.955Z,101468.34
2023-10-10T22:30:34.045Z,101466.72
2023-10-10T22:33:01.561Z,101474.38
2023-10-10T22:35:30.202Z,101463.91
2023-10-10T22:37:57.615Z,101471.56
2023-10-10T22:40:28.380Z,101459.88
2023-10-10T22:42:57.376Z,101465.88
2023-10-10T22:45:24.909Z,101464.69
2023-10-10T22:47:57.944Z,101461.47
2023-10-10T22:50:31.784Z,101471.53
2023-10-10T22:53:03.802Z,101465.47
2023-10-10T22:55:35.071Z,101462.22
2023-10-10T22:58:08.386Z,101457.78
2023-10-10T23:00:40.172Z,101461.41
2023-10-10T23:03:11.333Z,101462.22
2023-10-10T23:05:46.081Z,101456.56
2023-10-10T23:08:14.503Z,101444.09
2023-10-10T23:10:41.684Z,101444.09
2023-10-10T23:13:09.100Z,101447.31
2023-10-10T23:15:39.066Z,101440.44
2023-10-10T23:18:12.398Z,101446.09
2023-10-10T23:20:42.664Z,101443.25
2023-10-10T23:23:14.247Z,101438.00
2023-10-10T23:25:41.423Z,101439.66
2023-10-10T23:28:11.559Z,101436.81
2023-10-10T23:30:40.760Z,101446.47
2023-10-10T23:33:13.702Z,101441.63
2023-10-10T23:35:41.820Z,101446.88
2023-10-10T23:38:10.217Z,101433.59
2023-10-10T23:40:45.890Z,101444.88
2023-10-10T23:43:20.356Z,101450.91
2023-10-10T23:45:56.156Z,101444.06
2023-10-10T23:48:30.613Z,101454.13
2023-10-10T23:50:58.891Z,101437.59
2023-10-10T23:53:25.922Z,101446.47
2023-10-10T23:55:56.437Z,101431.53
2023-10-10T23:58:26.819Z,101440.78
